Time;durP1;ratioP1;P1;durP2;ratioP2;P2;SDS_P1;SDS_P2;PMS_P1;PMS_P2;Temp;Humidity;BMP_temperature;BMP_pressure;BME280_temperature;BME280_humidity;BME280_pressure;Samples;Min_cycle;Max_cycle;Signal;HPM_P1;HPM_P2
2022/11/17 00:01:04;;;;;;;13.27;9.10;;;;;;;-1.69;66.61;99190.47;4900437;29;20039;-66
2022/11/17 00:03:29;;;;;;;15.02;8.55;;;;;;;-1.71;66.59;99184.41;4917716;29;20043;-67
2022/11/17 00:05:53;;;;;;;10.98;7.25;;;;;;;-1.73;66.27;99174.00;4919165;28;20050;-71
2022/11/17 00:08:18;;;;;;;12.73;7.45;;;;;;;-1.71;66.44;99173.97;4904674;29;20046;-65
2022/11/17 00:10:43;;;;;;;10.48;6.97;;;;;;;-1.69;66.77;99174.78;4918749;28;20081;-68
2022/11/17 00:15:52;;;;;;;15.25;6.57;;;;;;;-1.66;66.79;99172.91;4910451;28;20609;-64
2022/11/17 00:21:18;;;;;;;10.32;6.43;;;;;;;-1.55;66.88;99172.59;4917911;28;20050;-64
2022/11/17 00:23:45;;;;;;;12.05;6.93;;;;;;;-1.54;66.24;99161.22;4918625;28;20150;-70
2022/11/17 00:26:10;;;;;;;10.13;6.28;;;;;;;-1.52;66.56;99162.91;4902479;29;20047;-70
2022/11/17 00:28:35;;;;;;;10.77;7.20;;;;;;;-1.51;66.86;99159.41;4917568;29;20043;-69
2022/11/17 00:36:25;;;;;;;12.52;7.40;;;;;;;-1.49;66.69;99146.28;4931702;28;20051;-70
2022/11/17 00:38:50;;;;;;;14.52;7.53;;;;;;;-1.49;66.65;99135.81;4918236;29;20086;-70
2022/11/17 00:41:14;;;;;;;13.10;6.05;;;;;;;-1.44;66.72;99139.13;4901556;29;20480;-70
2022/11/17 00:43:39;;;;;;;14.90;7.35;;;;;;;-1.44;66.80;99140.91;4902164;29;20097;-68
2022/11/17 00:46:04;;;;;;;13.00;7.53;;;;;;;-1.41;66.49;99141.66;4918314;28;20509;-68
2022/11/17 00:48:28;;;;;;;19.23;6.32;;;;;;;-1.39;66.71;99147.72;4901240;29;20093;-67
2022/11/17 00:50:53;;;;;;;8.60;6.03;;;;;;;-1.37;66.39;99143.28;4918415;28;20134;-70
2022/11/17 00:53:18;;;;;;;11.57;6.75;;;;;;;-1.38;66.36;99136.34;4918892;28;20039;-69
2022/11/17 00:55:42;;;;;;;9.73;6.75;;;;;;;-1.38;66.52;99131.13;4904985;29;20048;-69
2022/11/17 00:58:07;;;;;;;10.98;6.97;;;;;;;-1.37;66.67;99132.84;4886126;29;20043;-68
2022/11/17 01:00:31;;;;;;;9.75;6.13;;;;;;;-1.36;66.84;99134.53;4897606;29;20119;-68
2022/11/17 01:02:56;;;;;;;13.13;7.30;;;;;;;-1.36;66.58;99125.84;4896915;29;20035;-68
2022/11/17 01:05:21;;;;;;;14.15;6.40;;;;;;;-1.36;66.64;99124.09;4882550;29;20052;-68
2022/11/17 01:07:45;;;;;;;10.07;7.53;;;;;;;-1.37;66.64;99124.13;4900236;29;20051;-69
2022/11/17 01:10:10;;;;;;;13.18;7.85;;;;;;;-1.35;66.96;99119.69;4899637;29;20057;-68
2022/11/17 01:12:35;;;;;;;14.80;7.93;;;;;;;-1.41;66.59;99112.03;4902243;29;20127;-68
2022/11/17 01:14:59;;;;;;;12.00;7.88;;;;;;;-1.39;66.39;99129.41;4897152;29;20058;-69
2022/11/17 01:17:24;;;;;;;13.50;7.15;;;;;;;-1.40;66.65;99106.78;4899098;29;20407;-69
2022/11/17 01:19:49;;;;;;;13.20;7.78;;;;;;;-1.38;66.80;99104.97;4898852;29;20063;-67
2022/11/17 01:22:13;;;;;;;15.18;8.32;;;;;;;-1.36;66.62;99105.78;4908988;29;20039;-69
2022/11/17 01:24:38;;;;;;;16.83;7.60;;;;;;;-1.33;66.35;99099.56;4900292;28;20047;-71
2022/11/17 01:27:02;;;;;;;13.70;7.03;;;;;;;-1.31;66.42;99098.63;4900394;29;20050;-67
2022/11/17 01:29:27;;;;;;;13.80;7.55;;;;;;;-1.33;66.55;99087.38;4917161;28;20071;-67
2022/11/17 01:31:52;;;;;;;14.77;7.45;;;;;;;-1.31;66.37;99096.00;4916162;29;20125;-69
2022/11/17 01:34:17;;;;;;;10.32;6.38;;;;;;;-1.29;66.72;99096.81;4916619;29;20130;-69
2022/11/17 01:39:27;;;;;;;11.10;7.03;;;;;;;-1.23;66.80;99088.78;4917540;29;20050;-68
2022/11/17 01:41:53;;;;;;;15.52;7.57;;;;;;;-1.25;66.54;99087.13;4917685;28;20138;-71
2022/11/17 01:44:47;;;;;;;9.10;6.35;;;;;;;-1.16;66.33;99084.22;4917646;28;20432;-67
2022/11/17 01:47:36;;;;;;;9.77;7.32;;;;;;;-1.17;66.68;99088.59;4894190;29;20039;-67
2022/11/17 01:50:11;;;;;;;8.95;6.15;;;;;;;-1.16;66.76;99082.44;4895816;28;20043;-71
2022/11/17 01:52:39;;;;;;;10.02;7.03;;;;;;;-1.14;66.97;99085.03;4897877;29;20526;-67
2022/11/17 01:55:07;;;;;;;12.52;7.38;;;;;;;-1.14;66.73;99085.03;4883923;28;20402;-69
2022/11/17 01:57:38;;;;;;;11.57;7.75;;;;;;;-1.12;66.39;99078.81;4918266;29;20043;-69
2022/11/17 02:00:07;;;;;;;10.73;6.80;;;;;;;-1.07;66.33;99078.66;4906020;29;20054;-68
2022/11/17 02:02:34;;;;;;;12.10;7.15;;;;;;;-1.07;66.60;99073.44;4884349;29;20039;-68
2022/11/17 02:05:02;;;;;;;10.93;7.30;;;;;;;-1.03;66.53;99084.66;4900558;29;20039;-67
2022/11/17 02:07:35;;;;;;;13.52;7.18;;;;;;;-1.01;66.36;99082.81;4900792;29;20513;-69
2022/11/17 02:10:01;;;;;;;11.32;6.68;;;;;;;-1.04;66.42;99077.72;4905004;29;20070;-69
2022/11/17 02:12:30;;;;;;;9.65;6.60;;;;;;;-1.04;66.32;99075.97;4905376;29;20039;-68
2022/11/17 02:14:55;;;;;;;14.93;7.90;;;;;;;-1.09;66.08;99077.84;4904656;29;20426;-69
2022/11/17 02:17:22;;;;;;;10.63;7.20;;;;;;;-1.08;66.21;99070.88;4903554;29;20044;-68
2022/11/17 02:20:11;;;;;;;12.40;7.35;;;;;;;-1.12;65.96;99080.56;4897298;29;20472;-67
2022/11/17 02:23:03;;;;;;;12.52;6.28;;;;;;;-1.14;66.69;99070.19;4903329;29;20517;-68
2022/11/17 02:25:49;;;;;;;11.15;6.28;;;;;;;-1.18;66.75;99068.56;4906798;28;20045;-67
2022/11/17 02:28:16;;;;;;;7.68;5.80;;;;;;;-1.17;66.82;99065.03;4903119;28;20058;-68
2022/11/17 02:31:10;;;;;;;10.15;6.82;;;;;;;-1.12;67.03;99051.78;4920354;28;20039;-68
2022/11/17 02:33:41;;;;;;;12.15;7.25;;;;;;;-1.16;67.11;99058.06;4903553;29;20118;-69
2022/11/17 02:36:16;;;;;;;16.05;8.52;;;;;;;-1.24;67.03;99047.84;4920093;28;20081;-67
2022/11/17 02:39:08;;;;;;;16.85;8.32;;;;;;;-1.27;67.21;99047.97;4907185;29;20053;-68
2022/11/17 02:41:48;;;;;;;15.15;8.15;;;;;;;-1.32;67.34;99043.78;4889560;28;20600;-68
2022/11/17 02:44:19;;;;;;;12.68;7.45;;;;;;;-1.35;67.14;99039.50;4903138;29;20062;-68
2022/11/17 02:46:49;;;;;;;15.73;8.52;;;;;;;-1.39;67.47;99042.28;4902966;29;20075;-69
2022/11/17 02:49:22;;;;;;;13.00;7.25;;;;;;;-1.41;67.83;99041.47;4920073;28;20051;-69
2022/11/17 02:51:51;;;;;;;17.20;9.27;;;;;;;-1.55;67.95;99034.91;4889610;28;20031;-68
2022/11/17 02:54:17;;;;;;;13.57;8.77;;;;;;;-1.64;68.14;99027.38;4902834;29;20047;-69
2022/11/17 02:56:43;;;;;;;14.10;9.07;;;;;;;-1.69;68.64;99031.06;4919800;28;20075;-69
2022/11/17 02:59:08;;;;;;;22.25;10.60;;;;;;;-1.71;69.10;99025.03;4920322;28;20921;-68
2022/11/17 03:01:42;;;;;;;13.90;8.18;;;;;;;-1.66;69.40;99028.31;4920417;28;20058;-69
2022/11/17 03:04:28;;;;;;;17.00;8.60;;;;;;;-1.71;69.46;99025.03;4905281;29;20052;-69
2022/11/17 03:07:04;;;;;;;11.15;6.95;;;;;;;-1.66;69.56;99023.97;4903843;28;20051;-68
2022/11/17 03:09:45;;;;;;;11.45;7.10;;;;;;;-1.61;69.34;99018.59;4903540;29;20050;-71
2022/11/17 03:12:15;;;;;;;15.48;7.95;;;;;;;-1.73;69.89;99026.81;4889143;28;20043;-71
2022/11/17 03:14:52;;;;;;;17.40;7.65;;;;;;;-1.77;70.50;99014.75;4920322;28;20055;-68
2022/11/17 03:17:29;;;;;;;15.25;7.45;;;;;;;-1.81;70.86;99026.22;4902423;29;20043;-68
2022/11/17 03:20:10;;;;;;;14.48;7.45;;;;;;;-1.81;71.50;99015.78;4899520;29;20047;-69
2022/11/17 03:22:48;;;;;;;10.23;6.60;;;;;;;-1.74;71.77;99019.88;4885585;29;20035;-69
2022/11/17 03:25:18;;;;;;;11.80;6.50;;;;;;;-1.70;71.61;99011.91;4902437;29;20055;-69
2022/11/17 03:27:55;;;;;;;12.45;7.20;;;;;;;-1.62;70.00;99011.66;4919372;28;20043;-68
2022/11/17 03:30:21;;;;;;;15.95;8.25;;;;;;;-1.75;70.09;99011.19;4919404;28;20410;-69
2022/11/17 03:32:50;;;;;;;16.63;9.23;;;;;;;-1.85;69.38;99002.81;4901939;29;20173;-71
2022/11/17 03:35:26;;;;;;;14.05;7.93;;;;;;;-1.90;69.91;99011.66;4919045;28;20461;-69
2022/11/17 03:37:55;;;;;;;14.13;8.57;;;;;;;-2.00;69.54;98998.03;4918147;28;20043;-69
2022/11/17 03:40:24;;;;;;;13.77;8.10;;;;;;;-2.05;69.21;99004.34;4918071;28;20054;-66
2022/11/17 03:42:53;;;;;;;10.90;6.90;;;;;;;-2.11;69.38;99005.34;4889477;29;20082;-66
2022/11/17 03:45:26;;;;;;;20.75;8.73;;;;;;;-2.17;69.13;98997.72;4902299;29;20043;-66
2022/11/17 03:48:06;;;;;;;19.73;9.93;;;;;;;-2.31;69.80;98998.13;4919162;28;20094;-66
2022/11/17 03:50:39;;;;;;;26.60;10.57;;;;;;;-2.39;69.50;99007.09;4906427;28;20133;-67
2022/11/17 03:53:05;;;;;;;17.88;10.18;;;;;;;-2.53;70.56;99006.63;4901637;29;20035;-68
2022/11/17 03:55:49;;;;;;;17.23;8.98;;;;;;;-2.57;71.72;98995.44;4918960;28;20053;-66
2022/11/17 03:58:18;;;;;;;16.77;10.98;;;;;;;-2.60;72.18;98993.78;4918788;28;20071;-67
2022/11/17 04:00:45;;;;;;;15.75;8.77;;;;;;;-2.58;72.84;98989.34;4895503;29;20492;-68
2022/11/17 04:03:10;;;;;;;14.95;9.32;;;;;;;-2.54;73.32;98994.50;4895155;29;20049;-68
2022/11/17 04:05:34;;;;;;;15.93;9.25;;;;;;;-2.43;73.56;98987.19;4918543;28;20039;-66
2022/11/17 04:07:59;;;;;;;18.98;10.50;;;;;;;-2.44;74.09;98986.34;4885765;29;20584;-67
2022/11/17 04:10:25;;;;;;;19.02;11.55;;;;;;;-2.39;74.00;98987.06;4918758;28;20102;-66
2022/11/17 04:18:18;;;;;;;16.27;9.13;;;;;;;-2.25;73.25;98987.50;4901317;29;20046;-66
2022/11/17 04:20:43;;;;;;;15.52;9.15;;;;;;;-2.20;73.36;99000.41;4918309;28;20422;-65
2022/11/17 04:23:12;;;;;;;14.73;8.63;;;;;;;-2.16;72.98;98981.16;4918652;28;20039;-66
2022/11/17 04:28:37;;;;;;;18.10;10.98;;;;;;;-2.21;73.12;98980.44;4901206;29;20089;-65
2022/11/17 04:31:21;;;;;;;18.25;10.10;;;;;;;-2.18;72.70;98982.97;4918133;28;20053;-65
2022/11/17 04:33:48;;;;;;;18.58;9.38;;;;;;;-2.09;72.73;98974.84;4918280;28;20039;-65
2022/11/17 04:36:19;;;;;;;14.65;8.85;;;;;;;-2.00;72.98;98971.06;4897114;28;20082;-67
2022/11/17 04:38:52;;;;;;;12.93;9.68;;;;;;;-1.88;72.91;98974.16;4900948;29;20498;-69
2022/11/17 04:44:03;;;;;;;15.50;9.02;;;;;;;-1.73;72.31;98985.03;4900866;29;20123;-69
2022/11/17 04:46:31;;;;;;;19.13;9.82;;;;;;;-1.66;72.19;98970.84;4917946;28;20499;-68
2022/11/17 04:48:56;;;;;;;21.08;10.25;;;;;;;-1.68;71.96;98975.25;4901085;29;20039;-69
2022/11/17 04:51:22;;;;;;;17.25;10.43;;;;;;;-1.77;71.21;98968.56;4917891;28;20054;-70
2022/11/17 04:53:47;;;;;;;18.25;10.77;;;;;;;-1.80;71.22;98965.19;4917813;28;20035;-70
2022/11/17 04:56:12;;;;;;;14.85;9.82;;;;;;;-1.79;71.47;98977.38;4918053;28;20062;-70
2022/11/17 04:58:38;;;;;;;17.38;9.75;;;;;;;-1.75;71.62;98976.38;4900834;29;20027;-70
2022/11/17 05:01:12;;;;;;;19.08;9.52;;;;;;;-1.70;71.72;98974.47;4918232;28;20125;-70
2022/11/17 05:03:47;;;;;;;18.95;8.60;;;;;;;-1.62;71.33;98973.31;4917962;28;20383;-71
2022/11/17 05:06:15;;;;;;;14.10;8.80;;;;;;;-1.66;70.81;98981.28;4919968;28;20047;-70
2022/11/17 05:08:40;;;;;;;14.07;9.40;;;;;;;-1.76;70.34;98982.50;4922700;28;20047;-70
2022/11/17 05:13:50;;;;;;;11.57;6.90;;;;;;;-1.96;70.09;98970.94;4900552;28;20474;-70
2022/11/17 05:18:58;;;;;;;15.75;9.35;;;;;;;-2.04;69.54;98978.16;4900271;28;20453;-70
2022/11/17 05:21:22;;;;;;;15.13;8.50;;;;;;;-2.22;70.24;98981.34;4892520;29;20415;-70
2022/11/17 05:23:53;;;;;;;17.75;10.32;;;;;;;-2.17;69.80;98979.44;4912813;28;20126;-70
2022/11/17 05:26:23;;;;;;;17.23;10.00;;;;;;;-2.33;70.04;98978.19;4894063;29;20487;-69
2022/11/17 05:28:48;;;;;;;15.60;9.70;;;;;;;-2.41;70.40;98974.97;4894855;29;20121;-70
2022/11/17 05:31:13;;;;;;;19.35;10.65;;;;;;;-2.51;70.88;98984.84;4918064;28;20134;-69
2022/11/17 05:33:39;;;;;;;16.65;10.50;;;;;;;-2.53;71.10;98972.72;4918634;28;20047;-70
2022/11/17 05:36:04;;;;;;;17.10;9.48;;;;;;;-2.50;71.39;98972.63;4901483;29;20517;-70
2022/11/17 05:38:29;;;;;;;17.05;10.32;;;;;;;-2.48;71.69;98976.06;4918636;28;20035;-71
2022/11/17 05:40:53;;;;;;;12.88;9.15;;;;;;;-2.44;71.42;98981.13;4890357;29;20062;-71
2022/11/17 05:43:18;;;;;;;17.05;10.77;;;;;;;-2.44;70.81;98978.50;4898662;29;20066;-69
2022/11/17 05:45:45;;;;;;;13.32;9.18;;;;;;;-2.40;71.18;98974.94;4918360;28;20150;-70
2022/11/17 05:48:10;;;;;;;16.65;10.68;;;;;;;-2.44;70.93;98964.63;4899438;28;20048;-68
2022/11/17 05:50:35;;;;;;;25.25;13.05;;;;;;;-2.53;72.01;98970.97;4921213;28;20134;-68
2022/11/17 05:53:00;;;;;;;18.17;11.40;;;;;;;-2.57;73.07;98967.59;4923243;28;20438;-68
2022/11/17 05:55:25;;;;;;;18.55;9.43;;;;;;;-2.44;72.52;98970.69;4922097;28;20051;-69
2022/11/17 05:57:50;;;;;;;17.38;10.32;;;;;;;-2.42;72.43;98968.03;4928190;28;20047;-68
2022/11/17 06:00:15;;;;;;;18.38;10.95;;;;;;;-2.31;71.34;98965.94;4927924;28;20050;-69
2022/11/17 06:02:46;;;;;;;18.83;10.63;;;;;;;-2.31;71.02;98972.03;4927468;28;20131;-68
2022/11/17 06:05:10;;;;;;;17.83;11.35;;;;;;;-2.38;70.83;98969.66;4894349;28;20059;-68
2022/11/17 06:07:35;;;;;;;19.20;11.63;;;;;;;-2.41;71.29;98964.53;4923135;28;20031;-69
2022/11/17 06:10:00;;;;;;;14.57;10.18;;;;;;;-2.38;71.24;98964.44;4891664;29;20512;-68
2022/11/17 06:12:25;;;;;;;19.85;10.30;;;;;;;-2.29;70.61;98962.41;4902638;29;20130;-70
2022/11/17 06:14:49;;;;;;;20.48;10.73;;;;;;;-2.27;70.60;98967.59;4921021;28;20514;-70
2022/11/17 06:17:33;;;;;;;15.95;11.00;;;;;;;-2.39;71.72;98963.59;4920671;28;20201;-70
2022/11/17 06:20:20;;;;;;;16.58;10.52;;;;;;;-2.41;72.82;98965.38;4903165;29;20043;-68
2022/11/17 06:22:47;;;;;;;19.33;11.23;;;;;;;-2.39;73.70;98957.50;4907394;28;20097;-69
2022/11/17 06:25:12;;;;;;;15.82;10.00;;;;;;;-2.29;72.91;98964.16;4887512;29;20043;-69
2022/11/17 06:27:39;;;;;;;20.05;9.85;;;;;;;-2.25;72.62;98965.75;4920647;28;20169;-70
2022/11/17 06:30:05;;;;;;;18.52;10.25;;;;;;;-2.19;72.65;98962.97;4920561;28;20074;-69
2022/11/17 06:32:37;;;;;;;19.55;12.50;;;;;;;-2.14;73.40;98960.22;4920428;28;20055;-69
2022/11/17 06:35:07;;;;;;;14.95;10.20;;;;;;;-2.04;73.32;98967.72;4903529;29;20065;-69
2022/11/17 06:37:32;;;;;;;14.32;9.60;;;;;;;-1.95;72.99;98962.19;4892374;29;20071;-69
2022/11/17 06:39:56;;;;;;;18.92;11.95;;;;;;;-1.90;73.28;98956.81;4917292;28;20047;-70
2022/11/17 06:45:07;;;;;;;13.90;9.13;;;;;;;-1.70;72.56;98962.28;4896957;29;20087;-69
2022/11/17 06:47:31;;;;;;;22.48;12.25;;;;;;;-1.72;72.37;98960.59;4883018;29;20055;-69
2022/11/17 06:49:56;;;;;;;20.33;11.55;;;;;;;-1.81;72.39;98958.28;4898469;29;20155;-71
2022/11/17 06:52:21;;;;;;;23.83;12.60;;;;;;;-1.76;72.45;98958.97;4899845;29;20040;-69
2022/11/17 06:54:46;;;;;;;19.13;11.18;;;;;;;-1.67;72.05;98959.53;4899370;29;20102;-70
2022/11/17 06:57:11;;;;;;;18.13;10.48;;;;;;;-1.57;71.81;98970.53;4867476;29;20108;-70
2022/11/17 06:59:35;;;;;;;19.50;10.85;;;;;;;-1.56;71.81;98957.41;4901228;29;20065;-69
2022/11/17 07:02:00;;;;;;;24.38;12.38;;;;;;;-1.63;71.93;98965.53;4902774;29;20564;-69
2022/11/17 07:04:24;;;;;;;17.75;10.68;;;;;;;-1.52;71.71;98953.81;4909229;28;20526;-70
2022/11/17 07:06:49;;;;;;;19.83;12.27;;;;;;;-1.50;71.45;98964.22;4882089;29;20082;-71
2022/11/17 07:09:15;;;;;;;16.98;10.50;;;;;;;-1.49;72.00;98963.31;4898721;29;20055;-69
2022/11/17 07:11:39;;;;;;;21.92;10.43;;;;;;;-1.38;71.59;98960.31;4901166;29;20151;-69
2022/11/17 07:14:04;;;;;;;19.40;9.43;;;;;;;-1.24;71.53;98963.31;4870183;29;20123;-69
2022/11/17 07:16:30;;;;;;;17.77;10.98;;;;;;;-1.21;70.85;98964.06;4873447;29;20054;-67
2022/11/17 07:18:54;;;;;;;20.25;10.25;;;;;;;-1.19;70.96;98956.16;4898331;29;20418;-68
2022/11/17 07:21:21;;;;;;;18.67;10.23;;;;;;;-1.18;70.44;98958.72;4901376;29;20585;-68
2022/11/17 07:23:45;;;;;;;17.05;9.23;;;;;;;-1.17;70.29;98955.22;4919645;28;20449;-69
2022/11/17 07:26:10;;;;;;;16.13;8.32;;;;;;;-1.11;69.97;98965.44;4902565;29;20700;-69
2022/11/17 07:28:35;;;;;;;15.98;9.52;;;;;;;-1.20;69.92;98954.44;4886488;29;20047;-68
2022/11/17 07:31:02;;;;;;;12.95;9.00;;;;;;;-1.21;70.02;98957.97;4883232;29;20503;-69
2022/11/17 07:33:26;;;;;;;14.13;8.73;;;;;;;-1.14;70.51;98955.09;4908594;28;20050;-69
2022/11/17 07:35:51;;;;;;;15.02;9.20;;;;;;;-1.00;70.87;98957.22;4919060;28;20055;-69
2022/11/17 07:38:16;;;;;;;15.65;9.25;;;;;;;-0.80;70.42;98961.75;4919197;28;20073;-68
2022/11/17 07:40:40;;;;;;;17.73;9.18;;;;;;;-0.63;69.82;98961.97;4919094;28;20721;-67
2022/11/17 07:43:06;;;;;;;15.23;8.95;;;;;;;-0.35;69.65;98974.03;4901944;28;20047;-68
2022/11/17 07:45:34;;;;;;;15.70;8.93;;;;;;;-0.20;68.34;98965.56;4870635;29;20070;-68
2022/11/17 07:48:02;;;;;;;12.57;8.85;;;;;;;-0.15;67.54;98968.88;4919212;28;20054;-68
2022/11/17 07:50:28;;;;;;;18.00;9.57;;;;;;;-0.10;67.34;98969.53;4919031;28;20039;-69
2022/11/17 07:52:55;;;;;;;29.73;13.43;;;;;;;-0.23;65.78;98965.69;4919038;28;20051;-69
2022/11/17 07:55:21;;;;;;;20.05;10.75;;;;;;;-0.18;65.60;98966.34;4884345;29;20085;-68
2022/11/17 07:57:46;;;;;;;20.92;13.52;;;;;;;-0.50;65.10;98975.44;4909739;28;20058;-68
2022/11/17 08:00:12;;;;;;;21.08;12.98;;;;;;;-0.70;65.27;98964.88;4901391;28;20043;-69
2022/11/17 08:02:38;;;;;;;19.75;13.15;;;;;;;-0.92;65.32;98977.88;4901565;29;20039;-68
2022/11/17 08:05:03;;;;;;;18.05;10.40;;;;;;;-0.96;65.38;98974.50;4919001;28;20058;-69
2022/11/17 08:07:28;;;;;;;24.30;13.05;;;;;;;-1.27;65.88;98974.75;4919055;28;20045;-68
2022/11/17 08:09:53;;;;;;;16.45;10.18;;;;;;;-1.38;65.95;98976.88;4889938;29;20043;-68
2022/11/17 08:12:17;;;;;;;19.23;8.88;;;;;;;-1.45;66.06;98975.34;4916944;28;20449;-69
2022/11/17 08:14:42;;;;;;;11.73;7.70;;;;;;;-1.36;66.55;98971.59;4901365;29;20065;-68
2022/11/17 08:17:07;;;;;;;14.57;7.38;;;;;;;-1.33;65.51;98969.69;4918689;28;20506;-68
2022/11/17 08:19:31;;;;;;;13.82;8.50;;;;;;;-1.42;65.48;98970.03;4901032;29;20053;-70
2022/11/17 08:21:56;;;;;;;12.40;9.57;;;;;;;-1.45;66.72;98970.13;4918590;28;20054;-69
2022/11/17 08:24:21;;;;;;;15.45;8.98;;;;;;;-1.29;66.61;98958.25;4918453;28;20084;-69
2022/11/17 08:26:45;;;;;;;15.05;9.38;;;;;;;-1.08;65.46;98968.84;4918473;28;20047;-67
2022/11/17 08:29:10;;;;;;;15.35;7.75;;;;;;;-1.10;65.34;98959.28;4901732;28;20039;-67
2022/11/17 08:31:35;;;;;;;14.70;8.10;;;;;;;-1.19;65.73;98962.25;4901581;29;20039;-69
2022/11/17 08:34:00;;;;;;;13.27;7.18;;;;;;;-1.10;65.66;98964.53;4901178;28;20073;-67
2022/11/17 08:36:24;;;;;;;13.40;8.10;;;;;;;-0.99;65.24;98952.81;4900080;28;20047;-67
2022/11/17 08:38:49;;;;;;;13.13;7.03;;;;;;;-0.92;65.01;98960.41;4901218;29;20493;-67
2022/11/17 08:41:14;;;;;;;15.38;8.00;;;;;;;-1.10;64.65;98966.28;4918262;28;20054;-68
2022/11/17 08:43:38;;;;;;;19.30;9.90;;;;;;;-1.26;64.36;98966.00;4918197;28;20043;-67
2022/11/17 08:46:03;;;;;;;13.93;8.70;;;;;;;-1.21;64.65;98964.06;4892487;29;20051;-68
2022/11/17 08:48:30;;;;;;;23.33;12.82;;;;;;;-1.29;63.84;98973.06;4916737;28;20182;-70
2022/11/17 08:50:55;;;;;;;23.25;12.43;;;;;;;-1.41;64.03;98971.72;4901235;29;20047;-69
2022/11/17 08:53:22;;;;;;;23.35;14.25;;;;;;;-1.62;64.78;98965.47;4919898;28;20050;-69
2022/11/17 08:55:46;;;;;;;27.00;13.63;;;;;;;-1.64;65.10;98964.66;4918674;28;20055;-69
2022/11/17 08:58:11;;;;;;;23.60;14.18;;;;;;;-1.49;64.89;98961.53;4918221;28;20054;-68
2022/11/17 09:00:38;;;;;;;27.15;15.05;;;;;;;-1.35;65.03;98961.06;4882229;29;20502;-66
2022/11/17 09:03:08;;;;;;;35.50;17.20;;;;;;;-1.28;64.68;98961.72;4909011;28;20391;-64
2022/11/17 09:05:35;;;;;;;36.42;17.00;;;;;;;-1.25;64.88;98952.00;4883214;29;20043;-65
2022/11/17 09:08:00;;;;;;;30.00;15.93;;;;;;;-1.26;64.79;98949.44;4908299;28;20051;-64
2022/11/17 09:10:24;;;;;;;28.95;13.82;;;;;;;-1.14;64.68;98952.50;4900655;28;20047;-65
2022/11/17 09:12:54;;;;;;;21.02;9.57;;;;;;;-0.97;62.73;98951.88;4900873;29;20047;-65
2022/11/17 09:15:18;;;;;;;21.23;12.25;;;;;;;-1.29;62.31;98953.00;4917511;28;20063;-64
2022/11/17 09:17:46;;;;;;;19.65;10.85;;;;;;;-1.57;63.08;98960.94;4900147;29;20106;-65
2022/11/17 09:20:11;;;;;;;16.33;8.85;;;;;;;-1.68;63.42;98954.34;4917456;28;20045;-65
2022/11/17 09:22:36;;;;;;;16.90;8.80;;;;;;;-1.69;64.05;98950.06;4900263;29;20118;-65
2022/11/17 09:25:00;;;;;;;18.92;10.90;;;;;;;-1.57;63.48;98950.47;4890421;29;20055;-65
2022/11/17 09:27:25;;;;;;;18.30;8.88;;;;;;;-1.34;64.25;98949.69;4914111;28;20047;-65
2022/11/17 09:29:49;;;;;;;14.07;8.77;;;;;;;-0.84;63.73;98939.19;4901187;29;20053;-65
2022/11/17 09:32:15;;;;;;;13.15;7.93;;;;;;;-0.02;62.96;98936.03;4904324;28;20078;-66
2022/11/17 09:34:40;;;;;;;11.68;7.10;;;;;;;0.81;59.81;98933.41;4921236;28;20043;-65
2022/11/17 09:37:04;;;;;;;13.82;8.30;;;;;;;1.27;58.48;98925.22;4904461;29;20039;-65
2022/11/17 09:39:29;;;;;;;13.80;8.40;;;;;;;2.04;57.89;98922.47;4891026;29;20099;-65
2022/11/17 09:41:56;;;;;;;12.20;7.63;;;;;;;2.93;55.11;98914.47;4920298;28;20054;-65
2022/11/17 09:44:30;;;;;;;8.20;5.85;;;;;;;4.34;52.44;98906.63;4921740;28;20047;-65
2022/11/17 09:46:57;;;;;;;12.02;7.10;;;;;;;5.20;49.09;98912.91;4904844;29;20082;-66
2022/11/17 09:49:28;;;;;;;10.20;5.78;;;;;;;4.98;49.09;98907.22;4923603;28;20110;-66
2022/11/17 09:51:57;;;;;;;10.02;5.68;;;;;;;4.68;50.25;98921.34;4902859;29;20079;-64
2022/11/17 09:54:42;;;;;;;10.80;5.03;;;;;;;4.29;49.85;98921.00;4914935;28;20138;-65
2022/11/17 09:57:19;;;;;;;11.00;5.43;;;;;;;2.97;51.06;98923.91;4888415;29;20577;-66
2022/11/17 09:59:44;;;;;;;10.38;5.72;;;;;;;1.87;52.18;98927.69;4896823;29;20051;-65
2022/11/17 10:02:09;;;;;;;8.90;6.10;;;;;;;0.94;53.46;98921.47;4922822;28;20046;-66
2022/11/17 10:04:34;;;;;;;8.27;4.82;;;;;;;0.43;54.27;98925.44;4905594;29;20131;-64
2022/11/17 10:06:58;;;;;;;8.55;5.28;;;;;;;0.07;55.19;98927.81;4904100;28;20046;-65
2022/11/17 10:09:32;;;;;;;5.15;4.25;;;;;;;-0.03;56.16;98931.72;4864541;29;20043;-65
2022/11/17 10:12:15;;;;;;;9.20;5.65;;;;;;;-0.32;56.59;98938.06;4916544;28;20047;-66
2022/11/17 10:14:40;;;;;;;8.65;5.68;;;;;;;-0.53;56.94;98939.75;4901058;29;20043;-65
2022/11/17 10:17:04;;;;;;;7.93;5.35;;;;;;;-0.63;57.58;98929.69;4899404;28;20043;-66
2022/11/17 10:19:31;;;;;;;8.35;5.55;;;;;;;-0.69;57.89;98929.94;4888725;29;20039;-65
2022/11/17 10:22:32;;;;;;;8.20;5.10;;;;;;;-0.60;58.59;98935.69;4889863;29;20050;-65
2022/11/17 10:24:57;;;;;;;11.65;6.30;;;;;;;-0.66;57.67;98928.03;4905975;29;20050;-64
2022/11/17 10:27:31;;;;;;;6.85;4.70;;;;;;;-0.76;58.03;98930.16;4905432;28;20158;-65
2022/11/17 10:30:14;;;;;;;9.45;2.92;;;;;;;-0.74;57.67;98930.94;4895770;29;20098;-64
2022/11/17 10:32:48;;;;;;;8.13;4.93;;;;;;;-1.09;57.86;98936.63;4890119;29;20043;-65
2022/11/17 10:35:53;;;;;;;8.07;5.10;;;;;;;-1.25;59.14;98938.09;4905028;29;20620;-65
2022/11/17 10:38:21;;;;;;;7.82;4.65;;;;;;;-1.35;59.20;98932.28;4922724;28;20051;-65
2022/11/17 10:40:51;;;;;;;6.82;4.70;;;;;;;-1.43;59.43;98946.53;4904106;29;20097;-65
2022/11/17 10:43:24;;;;;;;8.80;5.53;;;;;;;-1.53;60.08;98935.56;4919903;28;20054;-66
2022/11/17 10:45:55;;;;;;;7.85;5.03;;;;;;;-1.47;60.02;98932.75;4887995;29;20071;-65
2022/11/17 10:48:35;;;;;;;9.10;5.47;;;;;;;-1.48;59.71;98936.25;4904020;28;20421;-64
2022/11/17 10:51:00;;;;;;;11.00;5.35;;;;;;;-1.51;59.45;98931.13;4920778;28;20063;-65
2022/11/17 10:53:35;;;;;;;8.15;5.18;;;;;;;-1.68;60.16;98934.31;4922038;28;20051;-65
2022/11/17 10:56:02;;;;;;;;;;;;;;;-1.61;60.04;98938.44;4923291;28;20169;-66
2022/11/17 10:58:28;;;;;;;6.47;4.75;;;;;;;-1.76;60.33;98932.84;4922933;28;19980;-66
2022/11/17 11:00:56;;;;;;;8.57;4.75;;;;;;;-1.86;60.26;98938.38;4923241;28;20501;-65
2022/11/17 11:03:32;;;;;;;7.55;4.72;;;;;;;-1.89;60.53;98941.09;4901723;28;20043;-67
2022/11/17 11:06:06;;;;;;;4.00;2.05;;;;;;;-1.84;60.06;98939.19;4904230;29;20042;-65
2022/11/17 11:08:51;;;;;;;9.10;4.57;;;;;;;-1.95;60.27;98932.63;4920840;28;20625;-64
2022/11/17 11:11:49;;;;;;;7.82;5.13;;;;;;;-1.99;60.51;98942.28;4921228;28;20143;-64
2022/11/17 11:14:21;;;;;;;6.22;3.08;;;;;;;-2.05;60.74;98932.06;4920081;28;20051;-65
2022/11/17 11:16:48;;;;;;;11.77;4.43;;;;;;;-2.12;60.92;98925.31;4919749;28;20529;-69
2022/11/17 11:19:15;;;;;;;5.32;3.45;;;;;;;-2.12;61.23;98938.38;4887122;29;20047;-65
2022/11/17 11:21:42;;;;;;;6.22;3.38;;;;;;;-2.05;61.23;98937.28;4886883;29;20042;-65
2022/11/17 11:24:23;;;;;;;9.93;4.85;;;;;;;-1.96;61.03;98942.22;4889444;28;20121;-65
2022/11/17 11:27:03;;;;;;;6.15;3.90;;;;;;;-1.92;60.57;98942.97;4919732;28;20039;-66
2022/11/17 11:29:27;;;;;;;6.68;3.50;;;;;;;-2.02;60.05;98931.94;4886538;29;20185;-65
2022/11/17 11:32:11;;;;;;;6.95;4.20;;;;;;;-2.11;60.94;98934.84;4919611;28;20146;-66
2022/11/17 11:34:51;;;;;;;3.92;3.45;;;;;;;-2.09;60.87;98940.03;4919042;28;20497;-68
2022/11/17 11:37:16;;;;;;;7.35;3.67;;;;;;;-2.12;60.54;98946.19;4918239;28;20043;-66
2022/11/17 11:40:17;;;;;;;8.60;3.80;;;;;;;-2.06;60.57;98934.72;4918326;28;20058;-64
2022/11/17 11:42:58;;;;;;;6.57;4.15;;;;;;;-2.01;59.61;98933.66;4879472;29;20052;-65
2022/11/17 11:46:04;;;;;;;6.63;4.07;;;;;;;-2.16;59.89;98939.38;4847200;29;20044;-67
2022/11/17 11:48:34;;;;;;;7.82;4.28;;;;;;;-2.27;60.38;98939.72;4860499;29;20141;-65
2022/11/17 11:51:09;;;;;;;5.85;3.38;;;;;;;-2.26;60.77;98936.19;4828910;29;20048;-66
2022/11/17 11:54:00;;;;;;;8.27;4.05;;;;;;;-2.15;60.52;98932.41;4829164;29;20078;-65
2022/11/17 11:56:29;;;;;;;5.85;3.75;;;;;;;-2.26;61.11;98933.56;4839735;29;20060;-66
2022/11/17 11:59:06;;;;;;;5.90;3.75;;;;;;;-2.27;61.85;98936.25;4860487;29;20075;-65
2022/11/17 12:01:43;;;;;;;6.05;3.78;;;;;;;-2.28;62.42;98935.41;4844478;29;20044;-66
2022/11/17 12:04:25;;;;;;;7.60;3.60;;;;;;;-2.27;62.88;98936.25;4860142;29;20049;-65
2022/11/17 12:07:09;;;;;;;5.47;3.30;;;;;;;-2.27;63.24;98938.88;4861492;29;20052;-66